Time;durP1;ratioP1;P1;durP2;ratioP2;P2;SDS_P1;SDS_P2;PMS_P1;PMS_P2;Temp;Humidity;BMP_temperature;BMP_pressure;BME280_temperature;BME280_humidity;BME280_pressure;Samples;Min_cycle;Max_cycle;Signal;HPM_P1;HPM_P2
2023/08/23 00:00:42;;;;;;;;;;;24.70;70.10;;;;;;4188998;28;19977;-41
2023/08/23 00:03:23;;;;;;;;;;;24.70;69.20;;;;;;4173494;28;20466;-42
2023/08/23 00:06:04;;;;;;;;;;;24.70;69.20;;;;;;4186944;28;19932;-42
2023/08/23 00:08:45;;;;;;;;;;;24.60;69.20;;;;;;4186669;28;19930;-42
2023/08/23 00:11:26;;;;;;;;;;;24.60;69.20;;;;;;4188512;28;20036;-42
2023/08/23 00:14:06;;;;;;;;;;;24.60;69.20;;;;;;4188961;28;20009;-42
2023/08/23 00:16:46;;;;;;;;;;;24.60;69.30;;;;;;4193789;27;19935;-42
2023/08/23 00:19:27;;;;;;;;;;;24.60;69.30;;;;;;4204228;27;19931;-42
2023/08/23 00:22:09;;;;;;;;;;;24.60;69.30;;;;;;4172965;28;20394;-42
2023/08/23 00:24:50;;;;;;;;;;;24.60;69.40;;;;;;4174861;28;20096;-43
2023/08/23 00:27:31;;;;;;;;;;;24.50;69.30;;;;;;4188827;28;19935;-41
2023/08/23 00:30:12;;;;;;;;;;;24.50;69.40;;;;;;4187440;28;20464;-41
2023/08/23 00:32:53;;;;;;;;;;;24.50;69.50;;;;;;4185009;28;19931;-41
2023/08/23 00:35:34;;;;;;;;;;;24.50;69.40;;;;;;4188859;28;19981;-42
2023/08/23 00:38:16;;;;;;;;;;;24.50;69.50;;;;;;4172207;28;20029;-50
2023/08/23 00:40:57;;;;;;;;;;;24.50;69.60;;;;;;4172312;28;19940;-48
2023/08/23 00:43:38;;;;;;;;;;;24.50;69.60;;;;;;4170820;28;20433;-51
2023/08/23 00:46:19;;;;;;;;;;;24.50;69.70;;;;;;4171111;28;19951;-50
2023/08/23 00:49:00;;;;;;;;;;;24.50;69.70;;;;;;4171765;28;19935;-49
2023/08/23 00:51:42;;;;;;;;;;;24.50;69.70;;;;;;4161339;28;19936;-49
2023/08/23 00:54:25;;;;;;;;;;;24.40;69.70;;;;;;4172897;28;19936;-51
2023/08/23 00:57:07;;;;;;;;;;;24.40;69.80;;;;;;4175650;28;19932;-51
2023/08/23 00:59:48;;;;;;;;;;;24.40;69.80;;;;;;4196389;28;20294;-50
2023/08/23 01:02:29;;;;;;;;;;;24.40;69.90;;;;;;4203698;27;19931;-48
2023/08/23 01:05:10;;;;;;;;;;;24.40;70.00;;;;;;4204346;28;19935;-48
2023/08/23 01:07:56;;;;;;;;;;;24.40;70.00;;;;;;4203122;28;19930;-49
2023/08/23 01:10:42;;;;;;;;;;;24.40;70.00;;;;;;4168513;28;19952;-49
2023/08/23 01:13:28;;;;;;;;;;;24.40;70.10;;;;;;4187283;28;20024;-48
2023/08/23 01:16:09;;;;;;;;;;;24.40;70.10;;;;;;4187402;28;19935;-49
2023/08/23 01:18:50;;;;;;;;;;;24.30;71.00;;;;;;4187694;28;20298;-48
2023/08/23 01:21:33;;;;;;;;;;;24.30;70.20;;;;;;4167194;28;20676;-49
2023/08/23 01:24:15;;;;;;;;;;;24.30;70.30;;;;;;4176944;28;19936;-49
2023/08/23 01:26:56;;;;;;;;;;;24.30;70.30;;;;;;4204266;28;19931;-49
2023/08/23 01:29:37;;;;;;;;;;;24.30;70.30;;;;;;4171102;28;19935;-49
2023/08/23 01:32:22;;;;;;;;;;;24.30;70.30;;;;;;4170403;28;19931;-50
2023/08/23 01:35:06;;;;;;;;;;;24.30;70.30;;;;;;4169704;28;19932;-52
2023/08/23 01:37:49;;;;;;;;;;;24.30;70.30;;;;;;4175216;28;19932;-49
2023/08/23 01:40:32;;;;;;;;;;;24.30;70.40;;;;;;4195985;28;19932;-50
2023/08/23 01:43:13;;;;;;;;;;;24.30;70.40;;;;;;4205083;28;19936;-50
2023/08/23 01:45:53;;;;;;;;;;;24.30;70.40;;;;;;4194439;28;20337;-49
2023/08/23 01:48:34;;;;;;;;;;;24.30;70.40;;;;;;4187021;28;19977;-49
2023/08/23 01:51:17;;;;;;;;;;;24.30;70.40;;;;;;4175453;28;19931;-48
2023/08/23 01:53:57;;;;;;;;;;;24.30;70.40;;;;;;4171916;28;19940;-51
2023/08/23 01:56:39;;;;;;;;;;;24.20;70.30;;;;;;4190047;28;20332;-52
2023/08/23 01:59:20;;;;;;;;;;;24.20;70.40;;;;;;4203309;28;19931;-54
2023/08/23 02:02:00;;;;;;;;;;;24.20;70.40;;;;;;4204474;28;19931;-49
2023/08/23 02:04:41;;;;;;;;;;;24.20;71.30;;;;;;4202607;28;20445;-52
2023/08/23 02:07:23;;;;;;;;;;;24.20;70.70;;;;;;4202180;28;20697;-49
2023/08/23 02:10:03;;;;;;;;;;;24.10;70.40;;;;;;4187578;28;20335;-49
2023/08/23 02:12:45;;;;;;;;;;;24.20;70.50;;;;;;4191181;28;20021;-49
2023/08/23 02:15:26;;;;;;;;;;;24.10;70.40;;;;;;4189216;28;19935;-49
2023/08/23 02:18:07;;;;;;;;;;;24.10;70.30;;;;;;4189741;28;20033;-49
2023/08/23 02:20:54;;;;;;;;;;;24.10;71.30;;;;;;4189018;28;19932;-47
2023/08/23 02:23:35;;;;;;;;;;;24.10;70.30;;;;;;4190615;28;19936;-50
2023/08/23 02:26:16;;;;;;;;;;;24.10;70.30;;;;;;4190323;28;20029;-41
2023/08/23 02:28:58;;;;;;;;;;;24.10;70.30;;;;;;4190194;28;19935;-41
2023/08/23 02:31:39;;;;;;;;;;;24.10;70.20;;;;;;4190743;28;20370;-43
2023/08/23 02:34:19;;;;;;;;;;;24.00;70.10;;;;;;4189614;28;19932;-41
2023/08/23 02:37:00;;;;;;;;;;;24.00;70.10;;;;;;4207559;28;19931;-40
2023/08/23 02:39:41;;;;;;;;;;;24.00;70.10;;;;;;4185223;28;19935;-42
2023/08/23 02:42:21;;;;;;;;;;;24.00;70.10;;;;;;4173825;28;19959;-42
2023/08/23 02:45:04;;;;;;;;;;;24.00;71.00;;;;;;4184495;28;19935;-41
2023/08/23 02:47:45;;;;;;;;;;;24.00;70.10;;;;;;4207475;28;19931;-42
2023/08/23 02:50:26;;;;;;;;;;;23.90;70.10;;;;;;4201045;28;19966;-42
2023/08/23 02:53:07;;;;;;;;;;;24.00;70.30;;;;;;4190589;28;19932;-42
2023/08/23 02:55:48;;;;;;;;;;;23.90;70.20;;;;;;4186318;28;20070;-42
2023/08/23 02:58:29;;;;;;;;;;;23.90;70.20;;;;;;4189471;28;20022;-42
2023/08/23 03:01:11;;;;;;;;;;;23.90;70.20;;;;;;4189181;28;19931;-42
2023/08/23 03:03:52;;;;;;;;;;;23.90;70.30;;;;;;4206609;28;20409;-42
2023/08/23 03:06:32;;;;;;;;;;;23.90;70.40;;;;;;4206406;27;19931;-42
2023/08/23 03:09:13;;;;;;;;;;;23.80;70.30;;;;;;4204768;28;19935;-42
2023/08/23 03:11:54;;;;;;;;;;;23.80;70.30;;;;;;4206036;27;19931;-42
2023/08/23 03:14:36;;;;;;;;;;;23.80;70.40;;;;;;4205559;28;20587;-42
2023/08/23 03:17:18;;;;;;;;;;;23.80;70.50;;;;;;4188197;28;19930;-42
2023/08/23 03:20:02;;;;;;;;;;;23.80;70.50;;;;;;4174166;28;19932;-41
2023/08/23 03:22:45;;;;;;;;;;;23.80;70.50;;;;;;4171267;28;20019;-41
2023/08/23 03:25:26;;;;;;;;;;;23.80;71.40;;;;;;4179197;28;20063;-41
2023/08/23 03:28:07;;;;;;;;;;;23.80;70.60;;;;;;4172719;28;20411;-41
2023/08/23 03:30:48;;;;;;;;;;;23.80;70.60;;;;;;4167951;28;20083;-41
2023/08/23 03:33:30;;;;;;;;;;;23.80;70.60;;;;;;4170619;28;20022;-41
2023/08/23 03:36:11;;;;;;;;;;;23.80;70.60;;;;;;4179261;28;19932;-41
2023/08/23 03:38:52;;;;;;;;;;;23.70;70.60;;;;;;4176677;28;19931;-41
2023/08/23 03:41:33;;;;;;;;;;;23.70;70.60;;;;;;4205986;28;20526;-41
2023/08/23 03:44:13;;;;;;;;;;;23.80;70.70;;;;;;4189163;28;19930;-41
2023/08/23 03:46:56;;;;;;;;;;;23.70;70.60;;;;;;4178743;28;20295;-41
2023/08/23 03:49:38;;;;;;;;;;;23.70;70.60;;;;;;4185111;28;20382;-41
2023/08/23 03:52:19;;;;;;;;;;;23.70;70.60;;;;;;4191204;28;20058;-41
2023/08/23 03:54:59;;;;;;;;;;;23.70;70.50;;;;;;4185291;28;19935;-41
2023/08/23 03:57:40;;;;;;;;;;;23.60;70.50;;;;;;4187245;28;19932;-41
2023/08/23 04:00:22;;;;;;;;;;;23.60;70.50;;;;;;4211278;28;19954;-43
2023/08/23 04:03:02;;;;;;;;;;;23.70;70.60;;;;;;4178504;28;20076;-42
2023/08/23 04:05:45;;;;;;;;;;;23.60;70.60;;;;;;4204366;28;19939;-42
2023/08/23 04:08:26;;;;;;;;;;;23.60;70.70;;;;;;4201393;28;19935;-42
2023/08/23 04:11:06;;;;;;;;;;;23.60;70.70;;;;;;4202818;28;20378;-42
2023/08/23 04:13:47;;;;;;;;;;;23.60;70.80;;;;;;4205438;27;19931;-42
2023/08/23 04:16:28;;;;;;;;;;;23.50;70.70;;;;;;4170968;28;19974;-42
2023/08/23 04:19:09;;;;;;;;;;;23.50;70.70;;;;;;4171372;28;19932;-42
2023/08/23 04:21:51;;;;;;;;;;;23.50;70.80;;;;;;4172059;28;19935;-42
2023/08/23 04:24:32;;;;;;;;;;;23.50;71.70;;;;;;4171528;28;19932;-42
2023/08/23 04:27:16;;;;;;;;;;;23.50;70.90;;;;;;4190491;28;20085;-42
2023/08/23 04:29:56;;;;;;;;;;;23.50;71.00;;;;;;4189253;28;19943;-42
2023/08/23 04:32:38;;;;;;;;;;;23.50;71.00;;;;;;4203896;28;19931;-42
2023/08/23 04:35:18;;;;;;;;;;;23.50;71.10;;;;;;4201123;28;20085;-42
2023/08/23 04:38:01;;;;;;;;;;;23.40;71.10;;;;;;4187553;28;20370;-42
2023/08/23 04:40:42;;;;;;;;;;;23.50;72.10;;;;;;4190086;28;19931;-53
2023/08/23 04:43:23;;;;;;;;;;;23.40;71.20;;;;;;4204267;28;19935;-51
2023/08/23 04:46:05;;;;;;;;;;;23.50;71.30;;;;;;4171005;28;19990;-51
2023/08/23 04:48:46;;;;;;;;;;;23.40;71.30;;;;;;4171149;28;19936;-50
2023/08/23 04:51:28;;;;;;;;;;;23.40;71.30;;;;;;4171069;28;19974;-51
2023/08/23 04:54:11;;;;;;;;;;;23.40;71.40;;;;;;4171192;28;20350;-52
2023/08/23 04:56:52;;;;;;;;;;;23.40;71.80;;;;;;4189378;28;20670;-49
2023/08/23 04:59:35;;;;;;;;;;;23.40;71.90;;;;;;4190843;28;19962;-49
2023/08/23 05:02:16;;;;;;;;;;;23.40;72.70;;;;;;4188197;28;20391;-49
2023/08/23 05:04:59;;;;;;;;;;;23.40;72.70;;;;;;4170736;28;19932;-49
2023/08/23 05:07:40;;;;;;;;;;;23.40;71.80;;;;;;4166259;28;20018;-50
2023/08/23 05:10:23;;;;;;;;;;;23.40;71.90;;;;;;4186096;28;19932;-50
2023/08/23 05:13:04;;;;;;;;;;;23.40;71.90;;;;;;4187178;28;20584;-49
2023/08/23 05:15:45;;;;;;;;;;;23.40;72.00;;;;;;4186841;28;19932;-49
2023/08/23 05:18:26;;;;;;;;;;;23.40;72.00;;;;;;4170576;28;19981;-50
2023/08/23 05:21:09;;;;;;;;;;;23.40;72.00;;;;;;4170314;28;20022;-49
2023/08/23 05:23:50;;;;;;;;;;;23.40;72.10;;;;;;4193564;28;19931;-50
2023/08/23 05:26:33;;;;;;;;;;;23.40;72.10;;;;;;4184209;28;19977;-49
2023/08/23 05:29:14;;;;;;;;;;;23.40;72.10;;;;;;4192747;28;20386;-49
2023/08/23 05:31:55;;;;;;;;;;;23.40;72.20;;;;;;4204183;28;19950;-51
2023/08/23 05:34:36;;;;;;;;;;;23.40;72.20;;;;;;4204525;28;20017;-50
2023/08/23 05:37:19;;;;;;;;;;;23.40;72.20;;;;;;4203728;28;19934;-51
2023/08/23 05:40:00;;;;;;;;;;;23.40;72.20;;;;;;4179876;28;20028;-51
2023/08/23 05:42:42;;;;;;;;;;;23.30;72.30;;;;;;4187464;28;20235;-49
2023/08/23 05:45:26;;;;;;;;;;;23.40;72.30;;;;;;4179833;28;20413;-48
2023/08/23 05:48:07;;;;;;;;;;;23.40;72.40;;;;;;4190474;28;19985;-49
2023/08/23 05:50:48;;;;;;;;;;;23.40;72.40;;;;;;4196815;28;19935;-51
2023/08/23 05:53:29;;;;;;;;;;;23.40;72.40;;;;;;4206197;28;19962;-48
2023/08/23 05:56:10;;;;;;;;;;;23.40;72.40;;;;;;4207312;27;19931;-49
2023/08/23 05:58:52;;;;;;;;;;;23.30;72.30;;;;;;4207579;28;19943;-49
2023/08/23 06:01:32;;;;;;;;;;;23.30;72.40;;;;;;4185843;28;19934;-50
2023/08/23 06:04:13;;;;;;;;;;;23.40;73.30;;;;;;4183924;28;19931;-49
2023/08/23 06:06:54;;;;;;;;;;;23.30;72.40;;;;;;4206250;28;19935;-49
2023/08/23 06:09:35;;;;;;;;;;;23.40;72.40;;;;;;4206853;28;19931;-49
2023/08/23 06:12:17;;;;;;;;;;;23.40;72.40;;;;;;4206805;28;20152;-50
2023/08/23 06:14:59;;;;;;;;;;;23.40;72.40;;;;;;4184643;28;20070;-51
2023/08/23 06:17:39;;;;;;;;;;;23.40;72.50;;;;;;4188881;28;19936;-50
2023/08/23 06:20:20;;;;;;;;;;;23.40;72.50;;;;;;4189804;28;20061;-42
2023/08/23 06:23:02;;;;;;;;;;;23.40;72.50;;;;;;4191119;28;20014;-49
2023/08/23 06:25:43;;;;;;;;;;;23.40;72.80;;;;;;4172945;28;19935;-49
2023/08/23 06:28:24;;;;;;;;;;;23.40;73.50;;;;;;4163472;28;20062;-51
2023/08/23 06:31:06;;;;;;;;;;;23.40;73.70;;;;;;4173807;28;19936;-50
2023/08/23 06:33:47;;;;;;;;;;;23.40;73.90;;;;;;4178816;28;20005;-51
2023/08/23 06:36:28;;;;;;;;;;;23.50;74.20;;;;;;4200663;28;19932;-49
2023/08/23 06:39:10;;;;;;;;;;;23.40;74.20;;;;;;4173665;28;19935;-50
2023/08/23 06:42:03;;;;;;;;;;;23.40;74.60;;;;;;4191660;28;19977;-50
2023/08/23 06:44:45;;;;;;;;;;;23.50;74.80;;;;;;4205236;28;19935;-48
2023/08/23 06:47:27;;;;;;;;;;;23.50;74.80;;;;;;4196268;28;19932;-49
2023/08/23 06:50:08;;;;;;;;;;;23.50;74.70;;;;;;4190413;28;19936;-50
2023/08/23 06:52:53;;;;;;;;;;;23.50;74.80;;;;;;4187319;28;19974;-49
2023/08/23 06:55:39;;;;;;;;;;;23.50;75.90;;;;;;4176652;28;19935;-51
2023/08/23 06:58:19;;;;;;;;;;;23.60;75.20;;;;;;4185478;28;20280;-49
2023/08/23 07:01:01;;;;;;;;;;;23.60;75.30;;;;;;4181921;28;19948;-49
2023/08/23 07:03:44;;;;;;;;;;;23.60;75.30;;;;;;4194747;28;20399;-49
2023/08/23 07:06:24;;;;;;;;;;;23.60;75.30;;;;;;4188470;28;20283;-49
2023/08/23 07:09:06;;;;;;;;;;;23.60;75.20;;;;;;4187412;28;20195;-49
2023/08/23 07:11:46;;;;;;;;;;;23.60;75.30;;;;;;4190612;28;19931;-49
2023/08/23 07:14:27;;;;;;;;;;;23.60;75.40;;;;;;4188431;28;20394;-48
2023/08/23 07:17:08;;;;;;;;;;;23.70;75.50;;;;;;4206647;27;19959;-49
2023/08/23 07:19:51;;;;;;;;;;;23.70;75.60;;;;;;4196053;28;19931;-49
2023/08/23 07:22:31;;;;;;;;;;;23.80;75.80;;;;;;4196333;28;20012;-42
2023/08/23 07:25:12;;;;;;;;;;;23.80;75.90;;;;;;4206372;28;19934;-41
2023/08/23 07:27:52;;;;;;;;;;;23.80;76.20;;;;;;4206517;28;19947;-41
2023/08/23 07:30:33;;;;;;;;;;;23.90;76.20;;;;;;4206288;27;20039;-41
2023/08/23 07:33:13;;;;;;;;;;;23.90;76.10;;;;;;4189784;28;19934;-41
2023/08/23 07:35:57;;;;;;;;;;;23.90;76.10;;;;;;4189494;28;19973;-49
2023/08/23 07:38:39;;;;;;;;;;;23.90;75.90;;;;;;4185687;28;19950;-50
2023/08/23 07:41:19;;;;;;;;;;;23.90;75.90;;;;;;4184758;28;19951;-50
2023/08/23 07:44:00;;;;;;;;;;;24.00;76.90;;;;;;4195360;28;19934;-50
2023/08/23 07:46:41;;;;;;;;;;;24.00;76.10;;;;;;4206218;27;19954;-52
2023/08/23 07:49:22;;;;;;;;;;;24.00;76.00;;;;;;4178668;28;19932;-50
2023/08/23 07:52:04;;;;;;;;;;;24.00;75.90;;;;;;4188940;28;19935;-50
2023/08/23 07:54:45;;;;;;;;;;;24.00;76.00;;;;;;4189180;28;19936;-49
2023/08/23 07:57:26;;;;;;;;;;;24.10;76.00;;;;;;4188762;28;19962;-49
2023/08/23 08:00:09;;;;;;;;;;;24.10;76.90;;;;;;4202011;28;19932;-49
2023/08/23 08:02:49;;;;;;;;;;;24.10;76.10;;;;;;4191122;28;20386;-53
2023/08/23 08:05:31;;;;;;;;;;;24.10;76.00;;;;;;4196675;28;19935;-49
2023/08/23 08:08:13;;;;;;;;;;;24.10;75.90;;;;;;4195679;27;19974;-49
2023/08/23 08:10:55;;;;;;;;;;;24.10;75.90;;;;;;4191492;27;19935;-49
2023/08/23 08:13:36;;;;;;;;;;;24.10;75.80;;;;;;4170278;28;19981;-42
2023/08/23 08:16:16;;;;;;;;;;;24.00;75.80;;;;;;4170617;28;19983;-42
2023/08/23 08:18:57;;;;;;;;;;;24.10;75.90;;;;;;4181589;28;20382;-42
2023/08/23 08:21:38;;;;;;;;;;;24.10;75.90;;;;;;4175977;28;19940;-42
2023/08/23 08:24:20;;;;;;;;;;;24.10;75.90;;;;;;4176542;28;20489;-42
2023/08/23 08:27:02;;;;;;;;;;;24.10;75.80;;;;;;4170007;28;19936;-42
2023/08/23 08:29:43;;;;;;;;;;;24.10;75.60;;;;;;4178045;28;19935;-42
2023/08/23 08:32:24;;;;;;;;;;;24.20;76.30;;;;;;4169526;28;19974;-42
2023/08/23 08:35:05;;;;;;;;;;;24.20;75.30;;;;;;4168027;28;19978;-42
2023/08/23 08:37:45;;;;;;;;;;;24.20;75.00;;;;;;4175677;28;20074;-42
2023/08/23 08:40:28;;;;;;;;;;;24.20;74.70;;;;;;4172310;28;19970;-42
2023/08/23 08:43:09;;;;;;;;;;;24.30;74.50;;;;;;4168986;28;20002;-42
2023/08/23 08:45:50;;;;;;;;;;;24.30;74.40;;;;;;4170745;28;19944;-42
2023/08/23 08:48:31;;;;;;;;;;;24.30;74.30;;;;;;4168871;28;20065;-42
2023/08/23 08:51:19;;;;;;;;;;;24.30;74.60;;;;;;4172418;28;20077;-42
2023/08/23 08:53:59;;;;;;;;;;;24.40;74.60;;;;;;4170340;28;20709;-40
2023/08/23 08:56:42;;;;;;;;;;;24.30;74.30;;;;;;4177933;28;19981;-42
2023/08/23 08:59:23;;;;;;;;;;;24.40;74.10;;;;;;4179241;28;19951;-42
2023/08/23 09:02:06;;;;;;;;;;;24.40;74.00;;;;;;4171142;28;19939;-41
2023/08/23 09:04:47;;;;;;;;;;;24.40;73.80;;;;;;4172231;28;19931;-41
2023/08/23 09:07:28;;;;;;;;;;;24.40;73.70;;;;;;4170252;27;19931;-41
2023/08/23 09:10:09;;;;;;;;;;;24.50;73.60;;;;;;4167288;28;19993;-42
2023/08/23 09:12:51;;;;;;;;;;;24.50;73.50;;;;;;4183810;28;19994;-41
2023/08/23 09:15:32;;;;;;;;;;;24.50;73.20;;;;;;4185015;27;19935;-47
2023/08/23 09:18:13;;;;;;;;;;;24.50;72.90;;;;;;4172199;28;19935;-50
2023/08/23 09:20:54;;;;;;;;;;;24.50;72.30;;;;;;4167393;28;20406;-50
2023/08/23 09:23:35;;;;;;;;;;;24.50;72.20;;;;;;4176712;28;20062;-49
2023/08/23 09:26:16;;;;;;;;;;;24.60;72.30;;;;;;4166531;28;20150;-49
2023/08/23 09:28:58;;;;;;;;;;;24.70;73.00;;;;;;4170133;28;19935;-49
2023/08/23 09:31:39;;;;;;;;;;;24.70;71.80;;;;;;4175486;28;19931;-49
2023/08/23 09:34:20;;;;;;;;;;;24.70;71.80;;;;;;4183177;28;19932;-50
2023/08/23 09:37:08;;;;;;;;;;;24.70;71.80;;;;;;4180992;28;20475;-51
2023/08/23 09:39:49;;;;;;;;;;;24.70;71.90;;;;;;4172060;28;20034;-51
2023/08/23 09:42:30;;;;;;;;;;;24.80;72.00;;;;;;4169334;28;19967;-53
2023/08/23 09:45:14;;;;;;;;;;;24.80;71.90;;;;;;4178420;28;19935;-54
2023/08/23 09:47:56;;;;;;;;;;;24.80;71.80;;;;;;4172725;28;19948;-53
2023/08/23 09:50:37;;;;;;;;;;;24.80;71.90;;;;;;4169537;28;19936;-51
2023/08/23 09:53:21;;;;;;;;;;;24.80;71.80;;;;;;4180371;28;19940;-49
2023/08/23 09:56:04;;;;;;;;;;;24.90;72.70;;;;;;4177026;28;19967;-51
2023/08/23 09:58:45;;;;;;;;;;;24.90;71.80;;;;;;4173363;28;19961;-50
2023/08/23 10:01:27;;;;;;;;;;;24.90;71.80;;;;;;4141849;28;19936;-50
2023/08/23 10:04:14;;;;;;;;;;;24.90;72.90;;;;;;4136236;28;20412;-42
2023/08/23 10:06:55;;;;;;;;;;;25.00;72.00;;;;;;4146002;28;19976;-42
2023/08/23 10:09:37;;;;;;;;;;;25.00;71.90;;;;;;4150010;28;19936;-42
2023/08/23 10:12:18;;;;;;;;;;;25.00;71.80;;;;;;4147213;28;19936;-42
2023/08/23 10:15:00;;;;;;;;;;;25.00;71.80;;;;;;4151577;28;19936;-42
2023/08/23 10:17:44;;;;;;;;;;;25.00;71.80;;;;;;4143194;28;20500;-42
2023/08/23 10:20:25;;;;;;;;;;;25.00;71.80;;;;;;4150876;28;19986;-43
2023/08/23 10:23:12;;;;;;;;;;;25.00;72.70;;;;;;4148209;28;19939;-43
2023/08/23 10:25:53;;;;;;;;;;;25.10;71.90;;;;;;4151885;28;19979;-42
2023/08/23 10:28:47;;;;;;;;;;;25.10;72.80;;;;;;4147746;28;19995;-43
2023/08/23 10:31:29;;;;;;;;;;;25.10;72.10;;;;;;4151903;28;20272;-44
2023/08/23 10:34:10;;;;;;;;;;;25.10;72.10;;;;;;4138903;28;19975;-41
2023/08/23 10:36:53;;;;;;;;;;;25.10;72.10;;;;;;4163930;28;19935;-41
2023/08/23 10:39:33;;;;;;;;;;;25.10;72.20;;;;;;4154341;28;20392;-41
2023/08/23 10:42:14;;;;;;;;;;;25.20;72.20;;;;;;4154421;28;19936;-41
2023/08/23 10:44:58;;;;;;;;;;;25.20;72.10;;;;;;4143762;28;20039;-43
2023/08/23 10:47:39;;;;;;;;;;;25.20;73.00;;;;;;4138670;28;19936;-41
2023/08/23 10:50:21;;;;;;;;;;;25.20;72.10;;;;;;4149711;28;19966;-43
2023/08/23 10:53:04;;;;;;;;;;;25.20;72.90;;;;;;4142234;28;19976;-42
2023/08/23 10:55:45;;;;;;;;;;;25.20;71.90;;;;;;4144635;28;19951;-43
2023/08/23 10:58:26;;;;;;;;;;;25.20;72.80;;;;;;4139986;28;20003;-50
2023/08/23 11:01:07;;;;;;;;;;;25.30;71.90;;;;;;4140328;28;19984;-51
2023/08/23 11:03:48;;;;;;;;;;;25.30;72.00;;;;;;4157656;28;20619;-50
2023/08/23 11:06:29;;;;;;;;;;;25.30;72.20;;;;;;4153106;28;20300;-49
2023/08/23 11:09:10;;;;;;;;;;;25.30;72.20;;;;;;4155927;28;19932;-49
2023/08/23 11:11:52;;;;;;;;;;;25.30;72.10;;;;;;4156887;28;19982;-42
2023/08/23 11:14:32;;;;;;;;;;;25.30;71.90;;;;;;4140182;28;19932;-42
2023/08/23 11:17:13;;;;;;;;;;;25.30;71.90;;;;;;4143610;28;20383;-41
2023/08/23 11:19:54;;;;;;;;;;;25.30;71.90;;;;;;4156911;28;19932;-41
2023/08/23 11:22:36;;;;;;;;;;;25.40;71.80;;;;;;4137984;28;20392;-41
2023/08/23 11:25:17;;;;;;;;;;;25.40;71.60;;;;;;4161766;28;20589;-50
2023/08/23 11:27:58;;;;;;;;;;;25.50;71.40;;;;;;4140656;28;19933;-50
2023/08/23 11:30:40;;;;;;;;;;;25.50;71.10;;;;;;4146401;28;19931;-50
2023/08/23 11:33:20;;;;;;;;;;;25.50;70.90;;;;;;4158937;28;20067;-42
2023/08/23 11:36:03;;;;;;;;;;;25.50;70.80;;;;;;4152004;28;19931;-42
2023/08/23 11:38:47;;;;;;;;;;;25.60;70.60;;;;;;4156081;28;19936;-43
2023/08/23 11:41:28;;;;;;;;;;;25.60;70.60;;;;;;4157506;28;20287;-43
2023/08/23 11:44:09;;;;;;;;;;;25.60;70.50;;;;;;4155510;28;20399;-43
2023/08/23 11:46:50;;;;;;;;;;;25.60;70.70;;;;;;4155847;28;19936;-43
2023/08/23 11:49:30;;;;;;;;;;;25.60;71.10;;;;;;4167955;28;19935;-44
2023/08/23 11:52:11;;;;;;;;;;;25.60;71.20;;;;;;4148103;28;20383;-50
2023/08/23 11:54:54;;;;;;;;;;;25.60;71.40;;;;;;4155820;28;19936;-50
2023/08/23 11:57:35;;;;;;;;;;;25.70;71.40;;;;;;4150333;28;20712;-50
2023/08/23 12:00:16;;;;;;;;;;;25.70;72.10;;;;;;4159325;28;19932;-52
2023/08/23 12:02:57;;;;;;;;;;;25.70;71.10;;;;;;4188347;28;19944;-51
2023/08/23 12:05:38;;;;;;;;;;;25.80;70.70;;;;;;4172331;28;20067;-52
2023/08/23 12:08:18;;;;;;;;;;;25.80;70.00;;;;;;4172375;28;20075;-51
2023/08/23 12:11:00;;;;;;;;;;;25.80;69.30;;;;;;4186828;28;19932;-50
2023/08/23 12:13:42;;;;;;;;;;;25.90;68.70;;;;;;4183171;28;19951;-50
2023/08/23 12:16:23;;;;;;;;;;;25.90;68.30;;;;;;4188161;28;20073;-54
2023/08/23 12:19:03;;;;;;;;;;;25.90;68.00;;;;;;4188570;28;19931;-54
2023/08/23 12:21:57;;;;;;;;;;;25.90;68.10;;;;;;4187879;28;19931;-51
2023/08/23 12:24:38;;;;;;;;;;;25.90;68.00;;;;;;4193127;28;19957;-51
2023/08/23 12:27:20;;;;;;;;;;;25.90;68.70;;;;;;4172380;28;19932;-50
2023/08/23 12:30:00;;;;;;;;;;;25.90;67.70;;;;;;4172022;28;20336;-51
2023/08/23 12:32:41;;;;;;;;;;;25.90;67.70;;;;;;4187932;28;19931;-50
2023/08/23 12:35:22;;;;;;;;;;;25.90;67.50;;;;;;4187526;28;19931;-51
2023/08/23 12:38:03;;;;;;;;;;;25.90;67.50;;;;;;4171540;28;19931;-54
2023/08/23 12:40:43;;;;;;;;;;;25.90;67.40;;;;;;4173526;28;20158;-51
2023/08/23 12:43:25;;;;;;;;;;;25.90;67.40;;;;;;4194294;28;20017;-51
2023/08/23 12:46:06;;;;;;;;;;;25.90;67.40;;;;;;4188424;28;19939;-53
2023/08/23 12:48:47;;;;;;;;;;;25.80;67.30;;;;;;4182412;28;20016;-53
2023/08/23 12:51:28;;;;;;;;;;;25.90;67.30;;;;;;4172161;28;19951;-52
2023/08/23 12:54:09;;;;;;;;;;;25.90;67.30;;;;;;4171752;28;20013;-51
2023/08/23 12:56:49;;;;;;;;;;;25.90;66.90;;;;;;4187932;28;19935;-53
2023/08/23 12:59:31;;;;;;;;;;;25.90;66.80;;;;;;4187753;28;20255;-44
2023/08/23 13:02:12;;;;;;;;;;;25.90;67.50;;;;;;4187712;28;20061;-43
2023/08/23 13:04:53;;;;;;;;;;;25.90;66.40;;;;;;4171897;28;20399;-43
2023/08/23 13:07:34;;;;;;;;;;;25.90;66.00;;;;;;4188351;28;19935;-43
2023/08/23 13:10:15;;;;;;;;;;;25.90;65.90;;;;;;4204914;27;19935;-43
2023/08/23 13:12:56;;;;;;;;;;;25.90;65.60;;;;;;4204350;28;19931;-42
2023/08/23 13:15:38;;;;;;;;;;;26.00;65.60;;;;;;4202669;28;20001;-43
2023/08/23 13:18:19;;;;;;;;;;;26.00;65.30;;;;;;4203534;28;19930;-51
2023/08/23 13:21:02;;;;;;;;;;;26.00;64.70;;;;;;4205128;27;20374;-52
2023/08/23 13:23:43;;;;;;;;;;;26.00;64.30;;;;;;4158205;28;19931;-42
2023/08/23 13:26:24;;;;;;;;;;;26.00;65.10;;;;;;4204143;28;19959;-43
2023/08/23 13:29:04;;;;;;;;;;;26.00;63.70;;;;;;4187764;28;19935;-43
2023/08/23 13:31:47;;;;;;;;;;;26.00;63.60;;;;;;4176128;28;23998;-43
2023/08/23 13:34:28;;;;;;;;;;;26.00;63.50;;;;;;4182829;28;19931;-43
2023/08/23 13:37:09;;;;;;;;;;;26.00;63.30;;;;;;4170387;28;19981;-43
2023/08/23 13:39:49;;;;;;;;;;;26.10;62.60;;;;;;4170853;28;19993;-43
2023/08/23 13:42:30;;;;;;;;;;;26.10;62.40;;;;;;4155872;28;20697;-43
2023/08/23 13:45:11;;;;;;;;;;;26.10;61.90;;;;;;4169079;28;19947;-43
2023/08/23 13:47:53;;;;;;;;;;;26.10;61.80;;;;;;4193085;28;20026;-42
2023/08/23 13:50:34;;;;;;;;;;;26.10;61.60;;;;;;4172580;28;19936;-42
2023/08/23 13:53:15;;;;;;;;;;;26.10;61.30;;;;;;4203154;28;19931;-49
2023/08/23 13:55:55;;;;;;;;;;;26.10;61.30;;;;;;4203912;28;19935;-44
2023/08/23 13:58:36;;;;;;;;;;;26.10;61.70;;;;;;4186700;28;19939;-52
2023/08/23 14:01:17;;;;;;;;;;;26.10;63.00;;;;;;4186925;28;19935;-61
2023/08/23 14:03:59;;;;;;;;;;;26.10;62.40;;;;;;4195392;28;19935;-52
2023/08/23 14:06:40;;;;;;;;;;;26.10;62.70;;;;;;4186837;28;19951;-52
2023/08/23 14:09:28;;;;;;;;;;;26.20;63.50;;;;;;4199818;28;20386;-50
2023/08/23 14:12:09;;;;;;;;;;;26.10;63.70;;;;;;4189763;28;20374;-54
2023/08/23 14:14:50;;;;;;;;;;;26.10;64.80;;;;;;4190313;28;19932;-52
2023/08/23 14:17:31;;;;;;;;;;;26.10;64.10;;;;;;4189012;27;19930;-54
2023/08/23 14:20:13;;;;;;;;;;;26.20;64.20;;;;;;4194055;28;20359;-53
2023/08/23 14:22:54;;;;;;;;;;;26.20;64.60;;;;;;4206790;27;20069;-53
2023/08/23 14:25:36;;;;;;;;;;;26.10;64.80;;;;;;4207158;28;19935;-54
2023/08/23 14:28:16;;;;;;;;;;;26.10;65.00;;;;;;4205763;28;20020;-52
2023/08/23 14:30:57;;;;;;;;;;;26.20;65.20;;;;;;4203219;28;19931;-43
2023/08/23 14:33:38;;;;;;;;;;;26.10;65.20;;;;;;4189757;28;20042;-43
2023/08/23 14:36:20;;;;;;;;;;;26.20;65.60;;;;;;4189848;28;19931;-43
2023/08/23 14:39:03;;;;;;;;;;;26.20;65.60;;;;;;4180028;27;20304;-44
2023/08/23 14:41:44;;;;;;;;;;;26.20;65.80;;;;;;4189067;28;20029;-52
2023/08/23 14:44:26;;;;;;;;;;;26.20;65.90;;;;;;4189478;28;19931;-55
2023/08/23 14:47:07;;;;;;;;;;;26.20;66.00;;;;;;4183615;28;20014;-55
2023/08/23 14:49:48;;;;;;;;;;;26.20;66.30;;;;;;4171100;28;19952;-53
2023/08/23 14:52:30;;;;;;;;;;;26.20;66.40;;;;;;4186638;28;19932;-50
2023/08/23 14:55:11;;;;;;;;;;;26.20;66.30;;;;;;4198758;28;19980;-53
2023/08/23 14:57:52;;;;;;;;;;;26.20;66.30;;;;;;4206856;27;19931;-50
2023/08/23 15:00:33;;;;;;;;;;;26.20;66.50;;;;;;4206357;28;19981;-50
2023/08/23 15:03:13;;;;;;;;;;;26.20;66.80;;;;;;4206035;28;20279;-51
2023/08/23 15:05:55;;;;;;;;;;;26.20;67.20;;;;;;4202375;28;20398;-52
2023/08/23 15:08:39;;;;;;;;;;;26.20;67.20;;;;;;4206680;27;20382;-51
2023/08/23 15:11:20;;;;;;;;;;;26.10;67.40;;;;;;4206266;28;19931;-54
2023/08/23 15:14:01;;;;;;;;;;;26.10;67.50;;;;;;4204157;28;19935;-52
2023/08/23 15:16:42;;;;;;;;;;;26.10;67.70;;;;;;4183370;28;19935;-48
2023/08/23 15:19:22;;;;;;;;;;;26.10;67.60;;;;;;4205555;28;19930;-46
2023/08/23 15:22:03;;;;;;;;;;;26.10;67.60;;;;;;4206110;27;20291;-45
2023/08/23 15:24:45;;;;;;;;;;;26.10;67.50;;;;;;4204315;28;19939;-44
2023/08/23 15:27:26;;;;;;;;;;;26.10;67.80;;;;;;4205250;28;20024;-44
2023/08/23 15:30:21;;;;;;;;;;;26.10;67.80;;;;;;4187819;28;20296;-42
2023/08/23 15:33:02;;;;;;;;;;;26.10;68.00;;;;;;4175083;28;20066;-42
2023/08/23 15:35:43;;;;;;;;;;;26.00;68.00;;;;;;4183318;28;19948;-49
2023/08/23 15:38:23;;;;;;;;;;;26.00;68.10;;;;;;4172763;28;20467;-51